Time;durP1;ratioP1;P1;durP2;ratioP2;P2;SDS_P1;SDS_P2;PMS_P1;PMS_P2;Temp;Humidity;BMP_temperature;BMP_pressure;BME280_temperature;BME280_humidity;BME280_pressure;Samples;Min_cycle;Max_cycle;Signal;HPM_P1;HPM_P2
2022/11/24 00:00:44;;;;;;;14.27;10.10;;;;;21.00;99291.00;;;;2079735;28;20585;-49
2022/11/24 00:01:44;;;;;;;12.73;9.30;;;;;21.00;99309.00;;;;2079453;28;21204;-50
2022/11/24 00:02:44;;;;;;;13.70;9.57;;;;;21.00;99320.00;;;;2079132;28;20627;-50
2022/11/24 00:03:46;;;;;;;13.20;9.60;;;;;20.90;99320.00;;;;2079330;28;20210;-49
2022/11/24 00:04:46;;;;;;;14.63;10.05;;;;;21.00;99318.00;;;;2079567;28;20210;-47
2022/11/24 00:05:47;;;;;;;11.40;9.00;;;;;20.90;99314.00;;;;2079915;28;20224;-48
2022/11/24 00:06:47;;;;;;;12.97;8.80;;;;;21.00;99317.00;;;;2079279;28;20222;-50
2022/11/24 00:07:48;;;;;;;12.00;8.73;;;;;20.90;99308.00;;;;2079579;28;20275;-51
2022/11/24 00:08:48;;;;;;;11.70;8.27;;;;;20.90;99314.00;;;;2079669;28;20300;-49
2022/11/24 00:09:48;;;;;;;11.67;8.43;;;;;20.90;99318.00;;;;2079555;28;20217;-50
2022/11/24 00:10:49;;;;;;;13.30;9.20;;;;;20.90;99319.00;;;;2079753;28;20222;-50
2022/11/24 00:11:49;;;;;;;15.23;8.40;;;;;20.90;99318.00;;;;2078942;28;20240;-48
2022/11/24 00:12:49;;;;;;;10.70;8.37;;;;;20.90;99307.00;;;;2079795;28;20221;-50
2022/11/24 00:13:50;;;;;;;11.87;8.33;;;;;20.90;99310.00;;;;2079775;28;20279;-50
2022/11/24 00:14:50;;;;;;;12.23;8.13;;;;;20.90;99313.00;;;;2079482;28;20213;-51
2022/11/24 00:15:50;;;;;;;10.93;7.70;;;;;20.90;99304.00;;;;2079346;28;20216;-50
2022/11/24 00:16:51;;;;;;;9.80;7.57;;;;;20.90;99311.00;;;;2079749;28;20255;-49
2022/11/24 00:17:51;;;;;;;11.50;8.20;;;;;20.90;99320.00;;;;2076378;28;20216;-50
2022/11/24 00:18:54;;;;;;;11.43;8.03;;;;;20.90;99311.00;;;;2086998;28;20221;-50
2022/11/24 00:19:54;;;;;;;10.18;7.57;;;;;20.80;99306.00;;;;2080627;28;20217;-49
2022/11/24 00:20:54;;;;;;;10.77;7.23;;;;;20.90;99307.00;;;;2079573;28;20300;-49
2022/11/24 00:21:55;;;;;;;11.40;8.13;;;;;20.90;99308.00;;;;2078064;28;20214;-48
2022/11/24 00:22:55;;;;;;;12.10;8.00;;;;;20.90;99319.00;;;;2079485;28;20697;-49
2022/11/24 00:23:55;;;;;;;8.30;6.37;;;;;20.90;99322.00;;;;2079230;28;20691;-50
2022/11/24 00:24:56;;;;;;;10.43;7.30;;;;;20.90;99326.00;;;;2078808;28;20243;-49
2022/11/24 00:26:23;;;;;;;9.13;7.00;;;;;20.90;99319.00;;;;2079329;28;20840;-50
2022/11/24 00:27:23;;;;;;;10.30;7.30;;;;;20.90;99326.00;;;;2083533;28;20217;-48
2022/11/24 00:28:24;;;;;;;9.90;7.07;;;;;20.90;99318.00;;;;2087443;28;20751;-50
2022/11/24 00:29:24;;;;;;;10.00;6.40;;;;;20.90;99317.00;;;;2087802;28;20216;-49
2022/11/24 00:30:24;;;;;;;11.40;7.20;;;;;20.80;99314.00;;;;2087828;28;20236;-50
2022/11/24 00:31:29;;;;;;;11.37;7.67;;;;;20.90;99316.00;;;;2087455;28;20200;-49
2022/11/24 00:32:29;;;;;;;8.95;6.22;;;;;20.80;99320.00;;;;2086723;28;20213;-50
2022/11/24 00:33:29;;;;;;;11.30;7.03;;;;;20.90;99323.00;;;;2087568;28;20568;-50
2022/11/24 00:34:30;;;;;;;10.57;7.20;;;;;20.80;99322.00;;;;2087824;28;20212;-49
2022/11/24 00:35:30;;;;;;;10.50;6.70;;;;;20.80;99319.00;;;;2086910;28;20219;-49
2022/11/24 00:36:32;;;;;;;11.50;6.80;;;;;20.80;99312.00;;;;2086699;28;20204;-50
2022/11/24 00:37:32;;;;;;;8.60;6.45;;;;;20.80;99316.00;;;;2087700;28;20554;-50
2022/11/24 00:38:33;;;;;;;8.73;6.50;;;;;20.90;99321.00;;;;2087284;28;20251;-50
2022/11/24 00:39:33;;;;;;;8.73;6.20;;;;;20.80;99324.00;;;;2087443;28;20217;-51
2022/11/24 00:40:33;;;;;;;9.97;6.37;;;;;20.80;99324.00;;;;2087028;28;20224;-55
2022/11/24 00:41:34;;;;;;;7.60;5.73;;;;;20.80;99329.00;;;;2087570;28;20301;-52
2022/11/24 00:42:34;;;;;;;8.57;5.77;;;;;20.80;99328.00;;;;2086130;28;20212;-49
2022/11/24 00:43:34;;;;;;;8.63;5.77;;;;;20.80;99324.00;;;;2086749;28;20212;-49
2022/11/24 00:44:35;;;;;;;9.23;5.80;;;;;20.80;99323.00;;;;2087525;28;20217;-49
2022/11/24 00:45:35;;;;;;;9.23;5.73;;;;;20.80;99327.00;;;;2086378;28;20240;-50
2022/11/24 00:46:36;;;;;;;10.17;6.07;;;;;20.80;99326.00;;;;2079146;28;20278;-51
2022/11/24 00:47:36;;;;;;;10.43;6.10;;;;;20.80;99325.00;;;;2078841;28;20225;-50
2022/11/24 00:48:36;;;;;;;7.50;5.80;;;;;20.80;99332.00;;;;2079083;28;20225;-49
2022/11/24 00:49:37;;;;;;;9.00;5.83;;;;;20.80;99329.00;;;;2078946;28;20227;-49
2022/11/24 00:50:37;;;;;;;8.77;5.50;;;;;20.80;99331.00;;;;2078193;28;20217;-49
2022/11/24 00:51:37;;;;;;;8.97;5.30;;;;;20.80;99326.00;;;;2078539;28;20209;-50
2022/11/24 00:52:38;;;;;;;7.67;5.60;;;;;20.80;99324.00;;;;2078392;28;20252;-50
2022/11/24 00:53:38;;;;;;;8.70;5.50;;;;;20.80;99329.00;;;;2079329;28;20210;-50
2022/11/24 00:54:38;;;;;;;8.97;5.53;;;;;20.80;99327.00;;;;2087300;28;20223;-50
2022/11/24 00:55:39;;;;;;;8.07;5.00;;;;;20.80;99327.00;;;;2082102;28;20213;-50
2022/11/24 00:56:39;;;;;;;7.03;4.63;;;;;20.80;99330.00;;;;2079386;28;20244;-49
2022/11/24 00:57:39;;;;;;;5.87;4.87;;;;;20.80;99335.00;;;;2079173;28;20233;-50
2022/11/24 00:58:40;;;;;;;11.53;5.23;;;;;20.80;99331.00;;;;2079130;28;20217;-48
2022/11/24 00:59:40;;;;;;;8.73;5.60;;;;;20.80;99332.00;;;;2079183;28;20213;-50
2022/11/24 01:00:40;;;;;;;7.10;4.53;;;;;20.70;99330.00;;;;2079376;28;20359;-50
2022/11/24 01:01:41;;;;;;;8.10;4.80;;;;;20.70;99335.00;;;;2078963;28;20233;-50
2022/11/24 01:02:41;;;;;;;8.23;5.30;;;;;20.80;99337.00;;;;2078507;28;20221;-49
2022/11/24 01:03:42;;;;;;;9.77;5.93;;;;;20.70;99340.00;;;;2079078;28;20666;-49
2022/11/24 01:04:42;;;;;;;9.20;4.97;;;;;20.70;99336.00;;;;2079062;28;20224;-51
2022/11/24 01:05:42;;;;;;;6.70;4.40;;;;;20.70;99339.00;;;;2078709;28;20220;-50
2022/11/24 01:06:43;;;;;;;8.50;4.83;;;;;20.70;99342.00;;;;2079227;28;20214;-50
2022/11/24 01:07:43;;;;;;;6.73;4.53;;;;;20.70;99337.00;;;;2079198;28;20240;-50
2022/11/24 01:08:44;;;;;;;7.47;5.00;;;;;20.70;99341.00;;;;2078392;28;20251;-49
2022/11/24 01:09:44;;;;;;;8.60;5.17;;;;;20.70;99337.00;;;;2076441;28;20218;-50
2022/11/24 01:10:45;;;;;;;5.53;4.07;;;;;20.70;99349.00;;;;2079374;28;20214;-51
2022/11/24 01:12:00;;;;;;;6.27;5.10;;;;;20.70;99345.00;;;;2082692;28;20872;-49
2022/11/24 01:13:00;;;;;;;7.43;5.18;;;;;20.70;99355.00;;;;2079246;28;20221;-49
2022/11/24 01:14:00;;;;;;;6.70;4.73;;;;;20.70;99353.00;;;;2078727;28;20228;-48
2022/11/24 01:15:01;;;;;;;7.73;4.60;;;;;20.70;99351.00;;;;2079217;28;20213;-49
2022/11/24 01:16:01;;;;;;;6.40;4.20;;;;;20.70;99349.00;;;;2077085;28;20213;-49
2022/11/24 01:17:01;;;;;;;7.50;4.53;;;;;20.70;99352.00;;;;2078477;28;20222;-50
2022/11/24 01:18:02;;;;;;;6.60;4.37;;;;;20.70;99358.00;;;;2078219;28;20291;-50
2022/11/24 01:19:03;;;;;;;8.35;4.40;;;;;20.70;99361.00;;;;2079069;28;20214;-50
2022/11/24 01:20:03;;;;;;;6.13;4.20;;;;;20.70;99355.00;;;;2085251;28;20561;-50
2022/11/24 01:21:04;;;;;;;7.53;4.23;;;;;20.70;99369.00;;;;2079679;28;21112;-49
2022/11/24 01:22:04;;;;;;;6.80;4.07;;;;;20.70;99360.00;;;;2078088;28;20867;-49
2022/11/24 01:23:05;;;;;;;5.27;4.00;;;;;20.70;99366.00;;;;2079126;28;20344;-48
2022/11/24 01:24:05;;;;;;;8.00;4.20;;;;;20.70;99361.00;;;;2079132;28;20841;-50
2022/11/24 01:25:06;;;;;;;7.90;4.20;;;;;20.70;99364.00;;;;2082004;28;20220;-50
2022/11/24 01:26:07;;;;;;;6.73;3.70;;;;;20.70;99367.00;;;;2087205;28;20227;-49
2022/11/24 01:27:08;;;;;;;6.85;3.80;;;;;20.70;99362.00;;;;2087365;28;20224;-48
2022/11/24 01:28:08;;;;;;;7.20;4.37;;;;;20.70;99359.00;;;;2087205;28;20946;-50
2022/11/24 01:29:08;;;;;;;7.70;4.60;;;;;20.60;99363.00;;;;2087257;28;20220;-50
2022/11/24 01:30:09;;;;;;;7.87;3.80;;;;;20.60;99365.00;;;;2076724;28;20217;-49
2022/11/24 01:31:10;;;;;;;6.13;4.13;;;;;20.70;99363.00;;;;2078373;28;20611;-50
2022/11/24 01:32:10;;;;;;;5.30;3.80;;;;;20.60;99367.00;;;;2078035;28;20224;-49
2022/11/24 01:33:10;;;;;;;8.03;4.27;;;;;20.60;99366.00;;;;2079157;28;20268;-50
2022/11/24 01:34:12;;;;;;;5.70;3.73;;;;;20.60;99369.00;;;;2082861;28;20282;-49
2022/11/24 01:35:12;;;;;;;11.65;4.13;;;;;20.60;99363.00;;;;2086735;28;20635;-49
2022/11/24 01:36:12;;;;;;;5.80;3.53;;;;;20.60;99366.00;;;;2087262;28;20213;-51
2022/11/24 01:37:13;;;;;;;6.43;3.57;;;;;20.60;99372.00;;;;2087218;28;20711;-49
2022/11/24 01:38:13;;;;;;;6.20;3.73;;;;;20.60;99372.00;;;;2079352;28;20645;-50
2022/11/24 01:39:13;;;;;;;6.47;4.10;;;;;20.60;99368.00;;;;2079187;28;20296;-50
2022/11/24 01:40:14;;;;;;;4.17;3.20;;;;;20.60;99366.00;;;;2079016;28;20217;-49
2022/11/24 01:41:19;;;;;;;6.77;3.70;;;;;20.60;99368.00;;;;2080940;28;20220;-50
2022/11/24 01:42:20;;;;;;;7.72;4.38;;;;;20.70;99374.00;;;;2081721;28;20271;-50
2022/11/24 01:43:20;;;;;;;6.93;3.90;;;;;20.60;99361.00;;;;2078476;28;20267;-49
2022/11/24 01:44:23;;;;;;;7.40;3.43;;;;;20.60;99366.00;;;;2078641;28;20260;-51
2022/11/24 01:45:33;;;;;;;5.72;3.55;;;;;20.70;99371.00;;;;2078747;28;20214;-50
2022/11/24 01:46:40;;;;;;;7.03;3.67;;;;;20.60;99367.00;;;;2083564;28;20971;-49
2022/11/24 01:47:40;;;;;;;6.15;3.25;;;;;20.60;99372.00;;;;2085753;28;20597;-50
2022/11/24 01:48:43;;;;;;;5.97;3.30;;;;;20.60;99365.00;;;;2077610;28;20213;-49
2022/11/24 01:49:45;;;;;;;5.35;3.38;;;;;20.60;99369.00;;;;2086061;28;20213;-53
2022/11/24 01:50:48;;;;;;;5.90;3.50;;;;;20.60;99372.00;;;;2078736;28;20225;-49
2022/11/24 01:51:59;;;;;;;4.97;3.00;;;;;20.60;99370.00;;;;2077152;28;20271;-47
2022/11/24 01:53:00;;;;;;;5.13;3.35;;;;;20.60;99372.00;;;;2078193;28;20610;-49
2022/11/24 01:54:12;;;;;;;5.70;3.50;;;;;20.60;99366.00;;;;2074374;28;20222;-48
2022/11/24 01:55:17;;;;;;;4.97;3.33;;;;;20.60;99375.00;;;;2070866;28;20587;-49
2022/11/24 01:56:17;;;;;;;8.82;3.90;;;;;20.60;99380.00;;;;2076892;28;20257;-49
2022/11/24 01:57:31;;;;;;;5.50;3.13;;;;;20.60;99376.00;;;;2069850;28;20876;-49
2022/11/24 01:58:32;;;;;;;5.05;2.78;;;;;20.60;99380.00;;;;2078682;28;20727;-50
2022/11/24 01:59:32;;;;;;;6.07;3.03;;;;;20.60;99381.00;;;;2086971;28;20208;-50
2022/11/24 02:00:34;;;;;;;6.80;2.90;;;;;20.60;99375.00;;;;2080853;28;20259;-50
2022/11/24 02:01:34;;;;;;;4.75;2.85;;;;;20.60;99380.00;;;;2077463;28;20283;-50
2022/11/24 02:02:34;;;;;;;5.40;3.40;;;;;20.60;99379.00;;;;2077135;28;20213;-49
2022/11/24 02:03:36;;;;;;;4.97;3.07;;;;;20.60;99377.00;;;;2078861;28;20235;-49
2022/11/24 02:04:36;;;;;;;9.18;4.07;;;;;20.60;99378.00;;;;2078083;28;20259;-50
2022/11/24 02:05:47;;;;;;;5.93;3.50;;;;;20.60;99385.00;;;;2077338;28;20210;-49
2022/11/24 02:06:47;;;;;;;5.75;3.10;;;;;20.60;99387.00;;;;2083347;28;20280;-50
2022/11/24 02:07:48;;;;;;;5.03;2.83;;;;;20.60;99377.00;;;;2086558;28;21241;-50
2022/11/24 02:08:57;;;;;;;5.90;3.20;;;;;20.60;99379.00;;;;2085840;28;20262;-50
2022/11/24 02:09:59;;;;;;;4.35;2.70;;;;;20.60;99371.00;;;;2086280;28;20212;-49
2022/11/24 02:11:01;;;;;;;3.88;2.70;;;;;20.60;99379.00;;;;2084968;28;20224;-49
2022/11/24 02:12:01;;;;;;;5.78;3.15;;;;;20.60;99383.00;;;;2076813;28;20217;-50
2022/11/24 02:13:01;;;;;;;5.87;3.20;;;;;20.50;99382.00;;;;2086596;28;20209;-50
2022/11/24 02:14:04;;;;;;;6.30;3.23;;;;;20.50;99374.00;;;;2077592;28;20217;-50
2022/11/24 02:15:05;;;;;;;6.07;3.10;;;;;20.60;99372.00;;;;2077941;28;20213;-50
2022/11/24 02:16:09;;;;;;;4.43;2.93;;;;;20.60;99375.00;;;;2086061;28;20255;-50
2022/11/24 02:17:09;;;;;;;5.50;3.30;;;;;20.50;99373.00;;;;2086835;28;20455;-50
2022/11/24 02:18:10;;;;;;;4.83;3.20;;;;;20.60;99383.00;;;;2086711;28;20216;-49
2022/11/24 02:19:34;;;;;;;4.20;2.90;;;;;20.60;99376.00;;;;2086842;28;20231;-50
2022/11/24 02:20:35;;;;;;;4.05;2.20;;;;;20.60;99383.00;;;;2085884;28;20226;-50
2022/11/24 02:21:35;;;;;;;5.10;2.80;;;;;20.50;99378.00;;;;2086394;28;20220;-50
2022/11/24 02:22:43;;;;;;;3.97;2.60;;;;;20.50;99382.00;;;;2085926;28;20212;-50
2022/11/24 02:23:53;;;;;;;5.47;3.20;;;;;20.50;99382.00;;;;2086622;28;20209;-49
2022/11/24 02:25:08;;;;;;;3.58;2.25;;;;;20.50;99372.00;;;;2085950;28;20217;-50
2022/11/24 02:26:30;;;;;;;5.07;2.70;;;;;20.50;99386.00;;;;2085890;28;20211;-50
2022/11/24 02:27:30;;;;;;;5.85;2.88;;;;;20.50;99391.00;;;;2086367;28;20576;-50
2022/11/24 02:28:31;;;;;;;6.53;2.77;;;;;20.50;99383.00;;;;2085500;28;20238;-49
2022/11/24 02:29:31;;;;;;;7.10;3.03;;;;;20.50;99385.00;;;;2085809;28;20212;-50
2022/11/24 02:30:31;;;;;;;4.80;2.60;;;;;20.50;99390.00;;;;2085249;28;20212;-50
2022/11/24 02:31:32;;;;;;;6.10;2.60;;;;;20.50;99390.00;;;;2077800;28;20237;-51
2022/11/24 02:32:32;;;;;;;5.30;2.23;;;;;20.50;99390.00;;;;2068767;28;20213;-50
2022/11/24 02:33:33;;;;;;;4.03;2.27;;;;;20.50;99385.00;;;;2077807;28;20221;-49
2022/11/24 02:34:33;;;;;;;6.63;2.70;;;;;20.50;99395.00;;;;2078231;28;20213;-50
2022/11/24 02:35:33;;;;;;;5.87;2.50;;;;;20.50;99399.00;;;;2076526;28;20209;-49
2022/11/24 02:36:34;;;;;;;3.80;2.60;;;;;20.50;99395.00;;;;2078364;28;20213;-50
2022/11/24 02:37:34;;;;;;;7.53;3.03;;;;;20.50;99393.00;;;;2078265;28;20218;-50
2022/11/24 02:38:34;;;;;;;4.40;2.57;;;;;20.50;99399.00;;;;2078103;28;20236;-50
2022/11/24 02:39:35;;;;;;;6.63;2.63;;;;;20.50;99400.00;;;;2078160;28;20237;-50
2022/11/24 02:40:35;;;;;;;5.50;2.30;;;;;20.50;99396.00;;;;2078263;28;20597;-50
2022/11/24 02:41:36;;;;;;;5.37;2.47;;;;;20.50;99395.00;;;;2077508;28;20348;-50
2022/11/24 02:42:38;;;;;;;5.00;2.30;;;;;20.50;99393.00;;;;2069228;28;20828;-50
2022/11/24 02:43:41;;;;;;;4.95;2.53;;;;;20.50;99400.00;;;;2077427;28;20296;-49
2022/11/24 02:44:45;;;;;;;4.65;2.10;;;;;20.50;99401.00;;;;2077003;28;20246;-50
2022/11/24 02:45:46;;;;;;;6.40;2.40;;;;;20.50;99390.00;;;;2077208;28;20217;-50
2022/11/24 02:46:46;;;;;;;3.60;2.20;;;;;20.50;99395.00;;;;2077466;28;20228;-49
2022/11/24 02:47:46;;;;;;;5.47;2.40;;;;;20.50;99404.00;;;;2078314;28;20228;-49
2022/11/24 02:48:47;;;;;;;5.93;2.47;;;;;20.50;99406.00;;;;2077898;28;20213;-50
2022/11/24 02:49:47;;;;;;;5.10;2.30;;;;;20.50;99402.00;;;;2077354;28;20220;-48
2022/11/24 02:50:47;;;;;;;4.30;2.03;;;;;20.50;99407.00;;;;2078255;28;20209;-49
2022/11/24 02:51:48;;;;;;;5.70;2.50;;;;;20.50;99396.00;;;;2076747;28;20218;-49
2022/11/24 02:52:48;;;;;;;5.93;2.30;;;;;20.50;99397.00;;;;2078233;28;20213;-49
2022/11/24 02:53:48;;;;;;;6.00;3.33;;;;;20.50;99396.00;;;;2078189;28;20272;-50
2022/11/24 02:54:49;;;;;;;5.73;2.00;;;;;20.50;99406.00;;;;2078096;28;20247;-48
2022/11/24 02:55:49;;;;;;;4.50;2.13;;;;;20.50;99408.00;;;;2080553;28;20218;-49
2022/11/24 02:56:50;;;;;;;4.47;2.30;;;;;20.50;99399.00;;;;2078583;28;20228;-49
2022/11/24 02:57:50;;;;;;;5.17;2.13;;;;;20.50;99400.00;;;;2078728;28;20300;-48
2022/11/24 02:58:50;;;;;;;6.13;2.60;;;;;20.50;99408.00;;;;2078096;28;20585;-49
2022/11/24 02:59:51;;;;;;;6.67;2.60;;;;;20.50;99403.00;;;;2078735;28;20214;-50
2022/11/24 03:00:53;;;;;;;8.23;3.13;;;;;20.50;99409.00;;;;2078185;28;20213;-50
2022/11/24 03:01:53;;;;;;;3.60;1.90;;;;;20.40;99402.00;;;;2076731;28;20229;-50
2022/11/24 03:02:53;;;;;;;4.63;2.03;;;;;20.40;99404.00;;;;2078111;28;20309;-49
2022/11/24 03:03:54;;;;;;;5.20;2.30;;;;;20.40;99411.00;;;;2077963;28;20692;-50
2022/11/24 03:04:54;;;;;;;4.57;2.33;;;;;20.50;99411.00;;;;2078421;28;20221;-50
2022/11/24 03:05:54;;;;;;;4.57;2.20;;;;;20.40;99405.00;;;;2077762;28;20225;-50
2022/11/24 03:06:55;;;;;;;6.17;2.50;;;;;20.50;99409.00;;;;2079970;28;20221;-49
2022/11/24 03:07:55;;;;;;;5.80;2.43;;;;;20.50;99402.00;;;;2080018;28;20263;-50
2022/11/24 03:08:55;;;;;;;4.73;1.87;;;;;20.50;99414.00;;;;2080089;28;20222;-50
2022/11/24 03:09:56;;;;;;;6.10;2.33;;;;;20.50;99408.00;;;;2076673;28;21200;-54
2022/11/24 03:10:56;;;;;;;7.87;2.73;;;;;20.50;99418.00;;;;2079881;28;20206;-53
2022/11/24 03:11:56;;;;;;;3.90;2.20;;;;;20.40;99419.00;;;;2076965;28;20866;-54
2022/11/24 03:12:57;;;;;;;6.40;2.80;;;;;20.40;99412.00;;;;2079471;28;20229;-50
2022/11/24 03:13:57;;;;;;;8.60;2.83;;;;;20.40;99418.00;;;;2078779;28;20243;-51
2022/11/24 03:14:57;;;;;;;5.47;2.40;;;;;20.40;99412.00;;;;2078890;28;20216;-51
2022/11/24 03:15:58;;;;;;;4.50;2.30;;;;;20.40;99418.00;;;;2079876;28;20256;-50
2022/11/24 03:16:58;;;;;;;4.60;2.20;;;;;20.40;99415.00;;;;2079444;28;20248;-50
2022/11/24 03:17:58;;;;;;;6.33;2.17;;;;;20.40;99415.00;;;;2079633;28;20222;-50
2022/11/24 03:18:59;;;;;;;3.70;2.00;;;;;20.40;99419.00;;;;2079457;28;20229;-50
2022/11/24 03:20:01;;;;;;;5.13;2.40;;;;;20.40;99420.00;;;;2078967;28;20221;-49
2022/11/24 03:21:01;;;;;;;4.57;1.92;;;;;20.40;99419.00;;;;2079091;28;20229;-50
2022/11/24 03:22:01;;;;;;;4.50;2.30;;;;;20.40;99420.00;;;;2078495;28;20248;-50
2022/11/24 03:23:02;;;;;;;5.73;2.40;;;;;20.40;99420.00;;;;2078949;28;20216;-50
2022/11/24 03:24:02;;;;;;;5.63;2.20;;;;;20.40;99416.00;;;;2078663;28;20367;-50
2022/11/24 03:25:03;;;;;;;5.53;2.70;;;;;20.40;99417.00;;;;2079413;28;20205;-49
2022/11/24 03:26:11;;;;;;;4.67;2.27;;;;;20.40;99424.00;;;;2070671;28;20214;-50
2022/11/24 03:27:11;;;;;;;3.95;1.90;;;;;20.40;99420.00;;;;2086979;28;20225;-50
2022/11/24 03:28:11;;;;;;;4.77;2.23;;;;;20.40;99413.00;;;;2079044;28;20729;-48
2022/11/24 03:29:12;;;;;;;4.03;2.20;;;;;20.40;99411.00;;;;2078845;28;20721;-49
2022/11/24 03:30:12;;;;;;;3.80;1.93;;;;;20.40;99412.00;;;;2079608;28;20213;-50
2022/11/24 03:31:13;;;;;;;4.60;2.00;;;;;20.40;99414.00;;;;2079706;28;20245;-49
2022/11/24 03:32:13;;;;;;;4.43;2.20;;;;;20.40;99416.00;;;;2078088;28;20213;-48
2022/11/24 03:33:13;;;;;;;5.50;2.20;;;;;20.40;99420.00;;;;2079288;28;20236;-50
2022/11/24 03:34:14;;;;;;;3.30;2.17;;;;;20.40;99420.00;;;;2079076;28;20209;-49
2022/11/24 03:35:14;;;;;;;3.60;1.80;;;;;20.40;99424.00;;;;2079614;28;20214;-49
2022/11/24 03:36:15;;;;;;;5.10;2.00;;;;;20.40;99417.00;;;;2079460;28;20213;-50
2022/11/24 03:37:16;;;;;;;6.30;1.80;;;;;20.40;99420.00;;;;2079029;28;20210;-49
2022/11/24 03:38:16;;;;;;;3.43;1.97;;;;;20.40;99427.00;;;;2086999;28;20248;-50
2022/11/24 03:39:16;;;;;;;3.13;1.90;;;;;20.40;99420.00;;;;2087637;28;20214;-49
2022/11/24 03:40:17;;;;;;;2.90;1.83;;;;;20.40;99426.00;;;;2087431;28;20213;-49
2022/11/24 03:41:17;;;;;;;6.27;2.43;;;;;20.40;99425.00;;;;2087807;28;20236;-49
2022/11/24 03:42:17;;;;;;;4.37;1.90;;;;;20.40;99423.00;;;;2086821;28;20692;-49
2022/11/24 03:43:18;;;;;;;6.00;2.30;;;;;20.40;99429.00;;;;2087204;28;20325;-50
2022/11/24 03:44:18;;;;;;;5.00;1.80;;;;;20.40;99427.00;;;;2087302;28;20216;-49
2022/11/24 03:45:18;;;;;;;4.03;2.00;;;;;20.40;99432.00;;;;2087524;28;20213;-49
2022/11/24 03:46:19;;;;;;;4.23;2.00;;;;;20.40;99436.00;;;;2087450;28;20244;-49
2022/11/24 03:47:19;;;;;;;6.20;2.00;;;;;20.40;99432.00;;;;2087590;28;20240;-49
2022/11/24 03:48:20;;;;;;;6.83;2.37;;;;;20.30;99436.00;;;;2083615;28;20213;-48
2022/11/24 03:49:20;;;;;;;4.30;1.97;;;;;20.40;99431.00;;;;2078093;28;20268;-49
2022/11/24 03:50:21;;;;;;;5.87;2.20;;;;;20.40;99440.00;;;;2074405;28;20244;-49
2022/11/24 03:51:21;;;;;;;5.73;2.20;;;;;20.30;99436.00;;;;2093402;28;20223;-49
2022/11/24 03:52:21;;;;;;;5.87;2.00;;;;;20.30;99434.00;;;;2091882;28;20228;-48
2022/11/24 03:53:22;;;;;;;5.03;1.93;;;;;20.30;99427.00;;;;2087287;28;20231;-49
2022/11/24 03:54:22;;;;;;;5.93;2.13;;;;;20.30;99428.00;;;;2087104;28;20216;-49
2022/11/24 03:55:23;;;;;;;4.90;1.90;;;;;20.40;99436.00;;;;2084988;28;20243;-50
2022/11/24 03:56:23;;;;;;;4.30;2.00;;;;;20.40;99437.00;;;;2086125;28;20209;-49
2022/11/24 03:57:23;;;;;;;3.23;1.70;;;;;20.30;99426.00;;;;2087484;28;20256;-49
2022/11/24 03:58:24;;;;;;;6.80;2.07;;;;;20.30;99431.00;;;;2085458;28;20220;-49
2022/11/24 03:59:24;;;;;;;5.27;1.80;;;;;20.30;99441.00;;;;2081649;28;20213;-49
2022/11/24 04:00:24;;;;;;;3.97;2.00;;;;;20.30;99437.00;;;;2087272;28;20209;-49
2022/11/24 04:01:25;;;;;;;5.03;2.07;;;;;20.30;99436.00;;;;2087269;28;20219;-49
2022/11/24 04:02:25;;;;;;;4.97;2.03;;;;;20.40;99450.00;;;;2081961;28;20245;-49
2022/11/24 04:03:25;;;;;;;5.30;2.00;;;;;20.30;99438.00;;;;2078911;28;20674;-49
2022/11/24 04:04:26;;;;;;;3.20;1.60;;;;;20.30;99437.00;;;;2078473;28;20720;-48
2022/11/24 04:05:26;;;;;;;4.57;1.87;;;;;20.30;99436.00;;;;2079354;28;20206;-48
2022/11/24 04:06:26;;;;;;;6.17;2.40;;;;;20.30;99436.00;;;;2079231;28;20213;-49
2022/11/24 04:07:27;;;;;;;5.50;2.50;;;;;20.30;99437.00;;;;2079155;28;20240;-49
2022/11/24 04:08:27;;;;;;;5.00;2.10;;;;;20.30;99449.00;;;;2082094;28;20225;-50
2022/11/24 04:09:28;;;;;;;5.87;2.30;;;;;20.30;99446.00;;;;2087949;28;20224;-49
2022/11/24 04:10:28;;;;;;;4.40;1.63;;;;;20.30;99442.00;;;;2087522;28;20209;-49
2022/11/24 04:12:48;;;;;;;4.15;1.52;;;;;20.30;99450.00;;;;2087703;28;20464;-49
2022/11/24 04:13:48;;;;;;;3.77;1.93;;;;;20.30;99452.00;;;;2081894;28;20205;-49
2022/11/24 04:14:48;;;;;;;3.80;1.97;;;;;20.30;99456.00;;;;2079502;28;20233;-49
2022/11/24 04:15:49;;;;;;;3.00;1.47;;;;;20.30;99446.00;;;;2079399;28;20229;-50
2022/11/24 04:16:49;;;;;;;4.07;1.60;;;;;20.30;99450.00;;;;2079557;28;20213;-50
2022/11/24 04:17:49;;;;;;;4.33;2.00;;;;;20.30;99450.00;;;;2078829;28;20214;-50
2022/11/24 04:18:53;;;;;;;5.10;1.80;;;;;20.30;99450.00;;;;2082172;28;20258;-50
2022/11/24 04:19:53;;;;;;;4.22;2.00;;;;;20.30;99449.00;;;;2087519;28;20235;-49
2022/11/24 04:20:53;;;;;;;6.60;2.00;;;;;20.30;99462.00;;;;2087547;28;20205;-50
2022/11/24 04:21:54;;;;;;;6.67;2.40;;;;;20.30;99461.00;;;;2086835;28;20209;-49
2022/11/24 04:22:54;;;;;;;3.60;1.90;;;;;20.30;99453.00;;;;2087616;28;20228;-50
2022/11/24 04:23:55;;;;;;;4.50;1.83;;;;;20.30;99452.00;;;;2087715;28;20205;-49
2022/11/24 04:24:55;;;;;;;4.67;2.17;;;;;20.30;99461.00;;;;2083118;28;20209;-49
2022/11/24 04:25:55;;;;;;;5.40;2.10;;;;;20.30;99448.00;;;;2085002;28;20275;-49
2022/11/24 04:26:56;;;;;;;3.87;2.10;;;;;20.30;99463.00;;;;2087317;28;20257;-49
2022/11/24 04:27:56;;;;;;;4.00;1.90;;;;;20.30;99464.00;;;;2087737;28;20216;-50
2022/11/24 04:28:56;;;;;;;6.10;2.27;;;;;20.30;99461.00;;;;2086614;28;20219;-49
2022/11/24 04:29:57;;;;;;;4.57;1.63;;;;;20.30;99457.00;;;;2085042;28;20239;-50
2022/11/24 04:31:04;;;;;;;5.30;1.80;;;;;20.30;99459.00;;;;2087483;28;20550;-50
2022/11/24 04:32:04;;;;;;;3.35;1.50;;;;;20.30;99463.00;;;;2086578;28;20235;-50
2022/11/24 04:33:04;;;;;;;7.07;2.10;;;;;20.30;99458.00;;;;2087717;28;20282;-49
2022/11/24 04:34:05;;;;;;;3.90;2.00;;;;;20.30;99458.00;;;;2081537;28;20292;-50
2022/11/24 04:35:05;;;;;;;6.63;2.20;;;;;20.30;99464.00;;;;2079481;28;20213;-50
2022/11/24 04:36:06;;;;;;;5.37;1.50;;;;;20.30;99456.00;;;;2077936;28;20214;-48
2022/11/24 04:37:06;;;;;;;4.20;1.80;;;;;20.20;99465.00;;;;2078421;28;20236;-50
2022/11/24 04:38:07;;;;;;;4.90;2.10;;;;;20.20;99468.00;;;;2078465;28;20991;-49
2022/11/24 04:39:07;;;;;;;5.63;1.93;;;;;20.20;99441.00;;;;2078200;28;20952;-50
2022/11/24 04:40:08;;;;;;;5.20;1.70;;;;;20.20;99468.00;;;;2079503;28;20752;-49
2022/11/24 04:41:08;;;;;;;3.15;1.65;;;;;20.20;99466.00;;;;2079298;28;20312;-49
2022/11/24 04:42:09;;;;;;;5.60;1.60;;;;;20.20;99464.00;;;;2078424;28;21163;-49
2022/11/24 04:43:09;;;;;;;4.63;2.13;;;;;20.20;99463.00;;;;2078229;28;20319;-50
2022/11/24 04:44:09;;;;;;;5.37;1.90;;;;;20.30;99467.00;;;;2078261;28;20811;-49
2022/11/24 04:45:10;;;;;;;3.57;1.57;;;;;20.20;99465.00;;;;2079281;28;20213;-50
2022/11/24 04:46:10;;;;;;;4.50;2.07;;;;;20.20;99467.00;;;;2078751;28;20304;-55
2022/11/24 04:47:14;;;;;;;5.67;2.03;;;;;20.20;99469.00;;;;2078333;28;20611;-52
2022/11/24 04:48:14;;;;;;;4.85;1.83;;;;;20.30;99471.00;;;;2078261;28;20316;-50
2022/11/24 04:49:14;;;;;;;4.87;2.20;;;;;20.20;99475.00;;;;2078775;28;20213;-49
2022/11/24 04:50:15;;;;;;;4.53;1.80;;;;;20.20;99466.00;;;;2079266;28;20205;-49
2022/11/24 04:51:15;;;;;;;6.23;2.27;;;;;20.20;99471.00;;;;2079323;28;20206;-49
2022/11/24 04:52:16;;;;;;;4.97;1.97;;;;;20.20;99478.00;;;;2078135;28;20256;-49
2022/11/24 04:53:17;;;;;;;4.57;1.77;;;;;20.20;99472.00;;;;2079101;28;20225;-49
2022/11/24 04:54:17;;;;;;;4.70;1.77;;;;;20.20;99482.00;;;;2079112;28;20644;-50
2022/11/24 04:55:17;;;;;;;6.43;2.00;;;;;20.20;99472.00;;;;2079123;28;20715;-49
2022/11/24 04:56:18;;;;;;;6.33;1.50;;;;;20.30;99477.00;;;;2078183;28;20217;-49
2022/11/24 04:57:22;;;;;;;4.67;2.10;;;;;20.20;99473.00;;;;2078653;28;20220;-49
2022/11/24 04:58:22;;;;;;;5.40;1.90;;;;;20.20;99473.00;;;;2079171;28;20220;-49
2022/11/24 04:59:23;;;;;;;5.23;2.17;;;;;20.20;99476.00;;;;2079236;28;20205;-49
2022/11/24 05:00:23;;;;;;;4.73;2.07;;;;;20.20;99484.00;;;;2079241;28;20213;-49
2022/11/24 05:01:23;;;;;;;5.23;1.70;;;;;20.20;99481.00;;;;2079179;28;20206;-49
2022/11/24 05:02:24;;;;;;;3.97;2.17;;;;;20.20;99483.00;;;;2078353;28;20216;-50
2022/11/24 05:03:24;;;;;;;5.33;2.07;;;;;20.20;99483.00;;;;2079399;28;20736;-50
2022/11/24 05:04:24;;;;;;;5.60;2.03;;;;;20.20;99486.00;;;;2078938;28;20229;-50
2022/11/24 05:05:25;;;;;;;6.50;2.43;;;;;20.30;99490.00;;;;2079274;28;20213;-50
2022/11/24 05:06:25;;;;;;;3.53;1.53;;;;;20.30;99487.00;;;;2078935;28;20209;-49
2022/11/24 05:07:26;;;;;;;4.53;1.63;;;;;20.20;99488.00;;;;2078489;28;20296;-50